Station Historical Data
Daily Summary for August 8, 2017 Units:  English    Metric   Both
« Previous Day
Next Day »
Daily Weekly Monthly Yearly Custom
  High: Low: Average:
Temperature: 77.9 °F 68.4 °F 71.8 °F
Dew Point: 72.0 °F 66.3 °F 68.9 °F
Humidity: 94% 80% 91%
Wind Speed: 0.0mph 0.0mph 0mph
Wind Gust: 2.0mph - -
Wind- -
Pressure: 30.07 in 29.98 in -
Precipitation: 0.43 in    
Historical Graphs
 
 
Tabular Data for August 8, 2017
Time Temperature Dew Point Pressure Wind Wind Speed Wind Gust Humidity Rainfall Rate (Hourly) Conditions
00:00 72.0 °F 69.3 °F 30.03 in Calm   2.0 mph 91% 0.15 in RA
00:10 71.4 °F 69.0 °F 30.04 in Calm   1.0 mph 92% 0.05 in RA
00:15 71.2 °F 68.8 °F 30.05 in Calm   2.0 mph 92% 0.02 in BKN
00:20 70.9 °F 68.5 °F 30.04 in Calm   1.0 mph 92% 0.02 in RA
00:25 70.5 °F 68.1 °F 30.04 in Calm   1.0 mph 92% 0.01 in RA
00:30 70.2 °F 67.8 °F 30.04 in Calm     92% 0.00 in BKN
00:40 69.7 °F 67.3 °F 30.04 in Calm   1.0 mph 92% 0.00 in BKN
00:45 69.7 °F 67.6 °F 30.03 in Calm     93% 0.00 in BKN
00:50 69.6 °F 67.5 °F 30.03 in Calm     93% 0.00 in OVC
00:55 69.4 °F 66.9 °F 30.03 in Calm     92% 0.01 in OVC
01:00 69.0 °F 66.6 °F 30.03 in Calm     92% 0.00 in OVC
01:05 68.9 °F 66.8 °F 30.02 in Calm     93% 0.00 in OVC
01:10 68.8 °F 66.7 °F 30.02 in Calm     93% 0.00 in OVC
01:15 68.8 °F 66.7 °F 30.02 in Calm     93% 0.00 in OVC
01:20 68.6 °F 66.5 °F 30.01 in Calm     93% 0.00 in -RA
01:25 68.5 °F 66.4 °F 30.01 in Calm     93% 0.00 in -RA
01:30 68.4 °F 66.3 °F 30.02 in Calm     93% 0.00 in BKN
01:35 68.4 °F 66.3 °F 30.01 in Calm     93% 0.00 in BKN
01:40 68.4 °F 66.3 °F 30.02 in Calm     93% 0.00 in BKN
01:45 68.5 °F 66.4 °F 30.02 in Calm     93% 0.00 in BKN
01:50 68.4 °F 66.3 °F 30.01 in Calm     93% 0.00 in -RA
01:55 68.5 °F 66.4 °F 30.01 in Calm     93% 0.00 in -RA
02:00 68.6 °F 66.8 °F 30.01 in Calm     94% 0.01 in -RA
02:05 68.6 °F 66.5 °F 30.01 in Calm     93% 0.00 in -RA
02:10 68.6 °F 66.5 °F 30.01 in Calm     93% 0.00 in -RA
02:15 68.6 °F 66.8 °F 30.01 in Calm     94% 0.00 in -RA
02:20 68.6 °F 66.8 °F 30.01 in Calm     94% 0.00 in -RA
02:25 68.6 °F 66.8 °F 30.00 in Calm     94% 0.00 in -RA
02:30 68.6 °F 66.8 °F 30.00 in Calm     94% 0.00 in SCT
02:35 68.6 °F 66.8 °F 30.00 in Calm     94% 0.00 in SCT
02:40 68.7 °F 66.9 °F 30.00 in Calm     94% 0.00 in SCT
02:45 68.7 °F 66.9 °F 29.99 in Calm     94% 0.00 in SCT
02:55 68.7 °F 66.9 °F 29.99 in Calm     94% 0.00 in SCT
03:00 68.7 °F 66.9 °F 29.99 in Calm     94% 0.00 in SCT
03:05 68.7 °F 66.9 °F 30.00 in Calm     94% 0.00 in SCT
03:10 68.8 °F 67.0 °F 29.99 in Calm     94% 0.00 in SCT
03:15 68.8 °F 67.0 °F 29.99 in Calm     94% 0.00 in SCT
03:20 68.8 °F 67.0 °F 29.98 in Calm     94% 0.00 in BKN
03:25 68.8 °F 67.0 °F 29.98 in Calm     94% 0.00 in BKN
03:30 68.7 °F 66.9 °F 29.98 in Calm     94% 0.00 in BKN
03:40 68.7 °F 66.9 °F 29.99 in Calm     94% 0.00 in BKN
03:50 68.7 °F 66.9 °F 29.99 in Calm     94% 0.00 in BKN
03:55 68.8 °F 67.0 °F 29.99 in Calm     94% 0.00 in BKN
04:00 68.8 °F 67.0 °F 29.99 in Calm     94% 0.00 in BKN
04:05 68.8 °F 67.0 °F 29.99 in Calm     94% 0.00 in BKN
04:10 68.8 °F 67.0 °F 29.99 in Calm     94% 0.00 in BKN
04:15 68.8 °F 67.0 °F 29.99 in Calm     94% 0.00 in BKN
04:25 68.9 °F 67.1 °F 29.99 in Calm     94% 0.00 in -RA
04:30 69.0 °F 67.2 °F 29.99 in Calm     94% 0.00 in -RA
04:35 69.0 °F 67.2 °F 29.99 in Calm     94% 0.00 in -RA
04:40 69.0 °F 67.2 °F 29.99 in Calm     94% 0.01 in -RA
04:45 68.9 °F 67.1 °F 29.99 in Calm     94% 0.00 in -RA
04:50 68.9 °F 67.1 °F 29.99 in Calm     94% 0.00 in -RA
04:55 68.9 °F 67.1 °F 29.99 in Calm     94% 0.00 in -RA
05:00 68.9 °F 67.1 °F 29.99 in Calm     94% 0.00 in -RA
05:05 69.0 °F 67.2 °F 29.99 in Calm     94% 0.00 in -RA
05:10 68.9 °F 67.1 °F 29.99 in Calm     94% 0.00 in -RA
05:15 68.9 °F 67.1 °F 29.99 in Calm     94% 0.00 in -RA
05:20 68.9 °F 67.1 °F 29.99 in Calm     94% 0.00 in CLR
05:25 68.9 °F 67.1 °F 29.99 in Calm     94% 0.00 in CLR
05:30 69.0 °F 67.2 °F 29.99 in Calm     94% 0.00 in -RA
05:35 69.0 °F 67.2 °F 29.99 in Calm     94% 0.00 in -RA
05:45 69.0 °F 67.2 °F 29.99 in Calm     94% 0.00 in -RA
05:50 69.0 °F 67.2 °F 29.99 in Calm     94% 0.00 in SCT
05:55 69.0 °F 67.2 °F 29.99 in Calm     94% 0.00 in SCT
06:00 69.0 °F 67.2 °F 29.99 in Calm     94% 0.00 in SCT
06:05 69.0 °F 67.2 °F 29.99 in Calm     94% 0.00 in SCT
06:10 69.0 °F 67.2 °F 30.00 in Calm     94% 0.00 in SCT
06:15 69.0 °F 67.2 °F 30.00 in Calm     94% 0.00 in SCT
06:20 69.0 °F 67.2 °F 30.00 in Calm     94% 0.00 in BKN
06:25 69.0 °F 67.2 °F 30.00 in Calm     94% 0.00 in BKN
06:30 68.9 °F 67.1 °F 30.00 in Calm     94% 0.00 in BKN
06:40 68.9 °F 67.1 °F 30.00 in Calm     94% 0.01 in RA
06:45 68.8 °F 67.0 °F 30.00 in Calm     94% 0.00 in BKN
06:50 68.8 °F 67.0 °F 30.00 in Calm     94% 0.00 in -DZ
06:55 68.9 °F 67.1 °F 30.01 in Calm     94% 0.00 in -DZ
07:00 68.9 °F 67.1 °F 30.01 in Calm     94% 0.00 in -DZ
07:05 68.9 °F 67.1 °F 30.01 in Calm     94% 0.00 in -DZ
07:10 68.8 °F 67.0 °F 30.01 in Calm     94% 0.01 in -DZ
07:15 68.9 °F 67.1 °F 30.01 in Calm     94% 0.00 in -RA
07:20 68.9 °F 67.1 °F 30.01 in Calm     94% 0.00 in -RA
07:25 68.9 °F 67.1 °F 30.02 in Calm     94% 0.01 in -RA
07:30 68.9 °F 67.1 °F 30.01 in Calm     94% 0.00 in -RA
07:35 69.0 °F 67.2 °F 30.02 in Calm     94% 0.01 in -RA
07:40 68.9 °F 67.1 °F 30.02 in Calm     94% 0.01 in -RA
07:45 68.9 °F 67.1 °F 30.02 in Calm     94% 0.01 in -RA
07:50 68.9 °F 67.1 °F 30.02 in Calm     94% 0.01 in -RA
07:55 68.9 °F 67.1 °F 30.02 in Calm     94% 0.01 in -RA
08:00 68.9 °F 67.1 °F 30.02 in Calm     94% 0.02 in -RA
08:05 69.0 °F 67.2 °F 30.03 in Calm     94% 0.01 in -RA
08:10 69.0 °F 67.2 °F 30.03 in Calm     94% 0.01 in -RA
08:15 69.0 °F 67.2 °F 30.03 in Calm     94% 0.01 in -RA
08:20 69.0 °F 67.2 °F 30.04 in Calm     94% 0.02 in -RA
08:25 69.1 °F 67.3 °F 30.04 in Calm     94% 0.01 in -RA
08:30 69.2 °F 67.4 °F 30.04 in Calm     94% 0.01 in -RA
08:35 69.2 °F 67.4 °F 30.04 in Calm     94% 0.02 in -RA
08:40 69.2 °F 67.4 °F 30.04 in Calm     94% 0.01 in -RA
08:45 69.2 °F 67.4 °F 30.04 in Calm     94% 0.01 in -RA
08:50 69.2 °F 67.4 °F 30.05 in Calm     94% 0.00 in -RA
08:55 69.2 °F 67.4 °F 30.05 in Calm     94% 0.01 in -RA
09:00 69.2 °F 67.4 °F 30.05 in Calm     94% 0.00 in -RA
09:05 69.0 °F 67.2 °F 30.05 in Calm     94% 0.00 in -RA
09:10 68.8 °F 67.0 °F 30.05 in Calm     94% 0.01 in -RA
09:15 68.8 °F 67.0 °F 30.05 in Calm     94% 0.00 in -RA
09:20 68.8 °F 67.0 °F 30.05 in Calm     94% 0.00 in -RA
09:25 68.6 °F 66.8 °F 30.05 in Calm     94% 0.00 in -RA
09:30 68.5 °F 66.7 °F 30.05 in Calm     94% 0.00 in -RA
09:35 68.5 °F 66.7 °F 30.05 in Calm     94% 0.00 in -RA
09:40 68.5 °F 66.7 °F 30.05 in Calm     94% 0.00 in -RA
09:45 68.7 °F 66.9 °F 30.05 in Calm     94% 0.00 in -RA
09:50 68.8 °F 67.0 °F 30.05 in Calm     94% 0.00 in -RA
09:55 68.9 °F 67.1 °F 30.05 in Calm     94% 0.00 in -RA
10:05 69.1 °F 67.3 °F 30.06 in Calm     94% 0.00 in -DZ
10:10 69.2 °F 67.4 °F 30.06 in Calm     94% 0.00 in -DZ
10:15 69.4 °F 67.6 °F 30.06 in Calm     94% 0.00 in -DZ
10:20 69.6 °F 67.8 °F 30.06 in Calm     94% 0.00 in -RA
10:25 69.6 °F 67.8 °F 30.06 in Calm     94% 0.00 in -RA
10:30 69.5 °F 67.7 °F 30.06 in Calm     94% 0.00 in -RA
10:35 69.7 °F 67.9 °F 30.06 in Calm     94% 0.00 in -RA
10:40 69.7 °F 67.9 °F 30.06 in Calm     94% 0.00 in -RA
10:45 69.7 °F 67.9 °F 30.06 in Calm     94% 0.00 in -RA
10:50 69.8 °F 68.0 °F 30.06 in Calm     94% 0.00 in -RA
11:00 69.8 °F 68.0 °F 30.06 in Calm     94% 0.00 in -RA
11:05 69.9 °F 68.1 °F 30.06 in Calm     94% 0.00 in OVC
11:10 69.7 °F 67.9 °F 30.06 in Calm     94% 0.00 in OVC
11:15 69.9 °F 68.1 °F 30.06 in Calm     94% 0.00 in OVC
11:20 70.2 °F 68.4 °F 30.06 in Calm     94% 0.00 in OVC
11:25 70.2 °F 68.4 °F 30.07 in Calm     94% 0.00 in OVC
11:30 70.3 °F 68.5 °F 30.07 in Calm     94% 0.00 in OVC
11:35 70.5 °F 68.7 °F 30.07 in Calm     94% 0.00 in OVC
11:40 70.4 °F 68.6 °F 30.07 in Calm     94% 0.00 in OVC
11:45 70.4 °F 68.6 °F 30.07 in Calm     94% 0.00 in OVC
11:50 70.3 °F 68.5 °F 30.07 in Calm     94% 0.00 in -DZ
11:55 70.4 °F 68.6 °F 30.07 in Calm     94% 0.00 in -DZ
12:00 70.5 °F 68.7 °F 30.07 in Calm     94% 0.00 in -DZ
12:05 70.6 °F 68.8 °F 30.07 in Calm     94% 0.00 in -DZ
12:10 70.8 °F 69.0 °F 30.07 in Calm     94% 0.00 in -DZ
12:15 71.1 °F 69.3 °F 30.07 in Calm     94% 0.00 in -DZ
12:20 71.1 °F 69.3 °F 30.07 in Calm     94% 0.00 in -DZ
12:25 71.7 °F 69.9 °F 30.07 in Calm   1.0 mph 94% 0.00 in -DZ
12:30 71.7 °F 69.6 °F 30.07 in Calm     93% 0.00 in -DZ
12:35 72.0 °F 69.9 °F 30.07 in Calm     93% 0.00 in -DZ
12:40 72.0 °F 69.5 °F 30.07 in Calm     92% 0.00 in -DZ
12:45 72.2 °F 69.7 °F 30.07 in Calm     92% 0.00 in -DZ
12:50 72.2 °F 69.4 °F 30.07 in Calm     91% 0.00 in OVC
12:55 72.3 °F 69.5 °F 30.06 in Calm     91% 0.00 in OVC
13:00 72.4 °F 69.3 °F 30.06 in Calm     90% 0.00 in OVC
13:05 72.5 °F 69.7 °F 30.07 in Calm     91% 0.00 in OVC
13:10 72.6 °F 69.8 °F 30.07 in Calm     91% 0.00 in OVC
13:15 72.5 °F 69.4 °F 30.07 in Calm     90% 0.00 in OVC
13:20 72.5 °F 69.4 °F 30.06 in Calm     90% 0.00 in BKN
13:25 72.7 °F 69.9 °F 30.06 in Calm     91% 0.00 in BKN
13:30 72.7 °F 69.6 °F 30.07 in Calm     90% 0.00 in OVC
13:40 72.9 °F 70.1 °F 30.06 in Calm     91% 0.00 in OVC
13:45 73.2 °F 70.4 °F 30.06 in Calm     91% 0.00 in OVC
13:50 73.6 °F 70.5 °F 30.06 in Calm     90% 0.00 in OVC
13:55 73.9 °F 69.7 °F 30.06 in Calm   1.0 mph 87% 0.00 in OVC
14:00 74.2 °F 69.7 °F 30.05 in Calm   1.0 mph 86% 0.00 in OVC
14:05 74.3 °F 70.6 °F 30.05 in Calm     88% 0.00 in OVC
14:10 74.6 °F 70.8 °F 30.05 in Calm   1.0 mph 88% 0.00 in OVC
14:15 74.7 °F 70.9 °F 30.05 in Calm   1.0 mph 88% 0.00 in OVC
14:20 74.6 °F 70.8 °F 30.05 in Calm   1.0 mph 88% 0.00 in OVC
14:25 74.8 °F 71.4 °F 30.05 in Calm     89% 0.00 in OVC
14:30 74.9 °F 70.8 °F 30.05 in Calm   1.0 mph 87% 0.00 in OVC
14:35 75.1 °F 71.3 °F 30.05 in Calm   1.0 mph 88% 0.00 in OVC
14:40 75.2 °F 70.7 °F 30.05 in Calm     86% 0.00 in OVC
14:45 75.2 °F 70.7 °F 30.05 in Calm   1.0 mph 86% 0.00 in OVC
14:50 75.1 °F 70.9 °F 30.05 in Calm   1.0 mph 87% 0.00 in OVC
14:55 74.9 °F 70.7 °F 30.05 in Calm     87% 0.00 in OVC
15:00 74.8 °F 70.7 °F 30.04 in Calm     87% 0.00 in OVC
15:05 74.8 °F 70.7 °F 30.04 in Calm     87% 0.00 in OVC
15:10 74.9 °F 70.1 °F 30.04 in Calm   1.0 mph 85% 0.00 in OVC
15:15 75.1 °F 70.3 °F 30.04 in Calm   1.0 mph 85% 0.00 in OVC
15:20 75.4 °F 70.9 °F 30.04 in Calm   1.0 mph 86% 0.00 in OVC
15:25 75.4 °F 70.6 °F 30.03 in Calm   1.0 mph 85% 0.00 in OVC
15:30 75.8 °F 70.7 °F 30.03 in Calm   1.0 mph 84% 0.00 in OVC
15:35 76.3 °F 71.1 °F 30.03 in Calm   1.0 mph 84% 0.00 in OVC
15:40 76.7 °F 71.8 °F 30.03 in Calm   1.0 mph 85% 0.00 in OVC
15:45 76.6 °F 71.0 °F 30.03 in Calm   1.0 mph 83% 0.00 in OVC
15:50 76.5 °F 71.6 °F 30.03 in Calm     85% 0.00 in OVC
15:55 76.5 °F 71.6 °F 30.03 in Calm     85% 0.00 in OVC
16:00 76.5 °F 70.9 °F 30.02 in Calm   1.0 mph 83% 0.00 in OVC
16:05 76.6 °F 71.0 °F 30.02 in Calm   1.0 mph 83% 0.00 in OVC
16:10 76.6 °F 70.7 °F 30.02 in Calm   1.0 mph 82% 0.00 in OVC
16:15 76.7 °F 71.1 °F 30.02 in Calm     83% 0.00 in OVC
16:20 76.8 °F 71.2 °F 30.02 in Calm     83% 0.00 in SCT
16:30 77.3 °F 71.7 °F 30.02 in Calm     83% 0.00 in SCT
16:35 77.6 °F 71.6 °F 30.02 in Calm     82% 0.00 in SCT
16:40 77.8 °F 71.8 °F 30.02 in Calm     82% 0.00 in SCT
16:45 77.7 °F 71.4 °F 30.02 in Calm     81% 0.00 in SCT
16:50 77.7 °F 71.8 °F 30.02 in Calm     82% 0.00 in SCT
16:55 77.6 °F 71.7 °F 30.01 in Calm     82% 0.00 in SCT
17:00 77.7 °F 71.8 °F 30.01 in Calm     82% 0.00 in SCT
17:05 77.6 °F 71.7 °F 30.01 in Calm     82% 0.00 in SCT
17:10 77.6 °F 71.7 °F 30.01 in Calm     82% 0.00 in SCT
17:15 77.6 °F 71.7 °F 30.01 in Calm     82% 0.00 in SCT
17:20 77.6 °F 71.7 °F 30.01 in Calm     82% 0.00 in SCT
17:25 77.6 °F 72.0 °F 30.01 in Calm   1.0 mph 83% 0.00 in SCT
17:30 77.6 °F 71.7 °F 30.01 in Calm     82% 0.00 in OVC
17:40 77.9 °F 71.2 °F 30.01 in Calm   1.0 mph 80% 0.00 in OVC
17:45 77.8 °F 71.5 °F 30.01 in Calm     81% 0.00 in OVC
17:50 77.5 °F 71.6 °F 30.01 in Calm     82% 0.00 in OVC
17:55 77.2 °F 71.6 °F 30.01 in Calm     83% 0.00 in OVC
18:00 77.0 °F 71.4 °F 30.01 in Calm     83% 0.00 in OVC
18:05 76.8 °F 71.6 °F 30.01 in Calm     84% 0.00 in BKN
18:10 76.6 °F 71.4 °F 30.01 in Calm     84% 0.00 in BKN
18:15 76.4 °F 71.2 °F 30.01 in Calm     84% 0.00 in BKN
18:20 76.2 °F 71.4 °F 30.01 in Calm     85% 0.00 in SCT
18:25 76.1 °F 71.3 °F 30.02 in Calm     85% 0.00 in SCT
18:30 76.0 °F 71.5 °F 30.01 in Calm     86% 0.00 in SCT
18:35 76.0 °F 71.5 °F 30.01 in Calm     86% 0.00 in SCT
18:40 76.0 °F 71.8 °F 30.01 in Calm     87% 0.00 in SCT
18:45 75.9 °F 71.4 °F 30.02 in Calm     86% 0.00 in SCT
18:50 75.8 °F 71.3 °F 30.01 in Calm   1.0 mph 86% 0.00 in SCT
18:55 75.7 °F 70.9 °F 30.02 in Calm     85% 0.00 in SCT
19:00 75.7 °F 70.9 °F 30.01 in Calm     85% 0.00 in SCT
19:05 75.6 °F 70.8 °F 30.01 in Calm     85% 0.00 in OVC
19:10 75.5 °F 71.0 °F 30.02 in Calm     86% 0.00 in OVC
19:15 75.5 °F 71.0 °F 30.02 in Calm     86% 0.00 in OVC
19:20 75.4 °F 70.9 °F 30.02 in Calm     86% 0.00 in OVC
19:25 75.3 °F 70.8 °F 30.02 in Calm     86% 0.00 in OVC
19:30 75.2 °F 70.7 °F 30.02 in Calm     86% 0.00 in OVC
19:35 75.1 °F 71.0 °F 30.02 in Calm     87% 0.00 in OVC
19:40 75.0 °F 70.8 °F 30.02 in Calm     87% 0.00 in OVC
19:45 74.8 °F 70.7 °F 30.02 in Calm     87% 0.00 in OVC
19:50 74.8 °F 70.7 °F 30.02 in Calm     87% 0.00 in OVC
19:55 74.7 °F 70.9 °F 30.02 in Calm     88% 0.00 in OVC
20:00 74.6 °F 70.8 °F 30.02 in Calm     88% 0.00 in OVC
20:05 74.5 °F 70.7 °F 30.02 in Calm     88% 0.00 in OVC
20:10 74.5 °F 70.7 °F 30.02 in Calm     88% 0.00 in OVC
20:20 74.2 °F 70.4 °F 30.02 in Calm     88% 0.00 in OVC
20:25 74.1 °F 70.3 °F 30.03 in Calm     88% 0.00 in OVC
20:30 73.9 °F 70.5 °F 30.03 in Calm     89% 0.00 in OVC
20:35 73.9 °F 70.5 °F 30.03 in Calm     89% 0.00 in OVC
20:40 73.8 °F 70.3 °F 30.03 in Calm     89% 0.00 in OVC
20:45 73.7 °F 70.3 °F 30.03 in Calm     89% 0.00 in OVC
20:50 73.6 °F 70.5 °F 30.03 in Calm     90% 0.00 in OVC
20:55 73.5 °F 70.4 °F 30.03 in Calm     90% 0.00 in OVC
21:00 73.3 °F 70.2 °F 30.04 in Calm     90% 0.00 in OVC
21:05 73.2 °F 70.1 °F 30.04 in Calm     90% 0.00 in OVC
21:10 73.1 °F 70.0 °F 30.04 in Calm     90% 0.00 in OVC
21:15 73.0 °F 70.2 °F 30.05 in Calm     91% 0.00 in OVC
21:20 72.9 °F 70.1 °F 30.05 in Calm     91% 0.00 in OVC
21:25 72.9 °F 70.1 °F 30.06 in Calm     91% 0.00 in OVC
21:30 72.8 °F 70.0 °F 30.06 in Calm     91% 0.00 in OVC
21:40 72.8 °F 70.0 °F 30.06 in Calm     91% 0.00 in OVC
21:45 72.8 °F 70.3 °F 30.06 in Calm     92% 0.00 in OVC
21:50 72.8 °F 70.3 °F 30.06 in Calm     92% 0.00 in OVC
21:55 72.7 °F 70.2 °F 30.06 in Calm     92% 0.00 in OVC
22:00 72.7 °F 70.2 °F 30.06 in Calm     92% 0.00 in OVC
22:10 72.7 °F 70.2 °F 30.07 in Calm     92% 0.00 in OVC
22:15 72.6 °F 70.2 °F 30.06 in Calm     92% 0.00 in OVC
22:20 72.6 °F 70.1 °F 30.07 in Calm     92% 0.00 in BKN
22:25 72.6 °F 70.1 °F 30.07 in Calm     92% 0.00 in BKN
22:30 72.6 °F 70.1 °F 30.07 in Calm     92% 0.00 in BKN
22:35 72.6 °F 70.1 °F 30.07 in Calm     92% 0.00 in BKN
22:40 72.6 °F 70.1 °F 30.07 in Calm     92% 0.00 in BKN
22:45 72.6 °F 70.1 °F 30.07 in Calm     92% 0.00 in BKN
22:50 72.6 °F 70.1 °F 30.07 in Calm     92% 0.00 in BKN
22:55 72.6 °F 70.1 °F 30.07 in Calm     92% 0.00 in BKN
23:00 72.6 °F 70.1 °F 30.07 in Calm     92% 0.00 in BKN
23:10 72.6 °F 70.1 °F 30.07 in Calm     92% 0.00 in BKN
23:20 72.5 °F 70.0 °F 30.07 in Calm     92% 0.00 in BKN
23:30 72.4 °F 69.9 °F 30.07 in Calm     92% 0.00 in BKN
23:40 72.3 °F 69.8 °F 30.07 in Calm     92% 0.00 in BKN
23:45 72.3 °F 69.8 °F 30.07 in Calm     92% 0.00 in BKN
23:50 72.2 °F 69.7 °F 30.07 in Calm     92% 0.00 in BKN
23:55 72.2 °F 69.7 °F 30.07 in Calm     92% 0.00 in BKN
Piedmont Bend
Compliments of Weather Underground - 2 mb